Time;durP1;ratioP1;P1;durP2;ratioP2;P2;SDS_P1;SDS_P2;PMS_P1;PMS_P2;Temp;Humidity;BMP_temperature;BMP_pressure;BME280_temperature;BME280_humidity;BME280_pressure;Samples;Min_cycle;Max_cycle;Signal;HPM_P1;HPM_P2
2021/12/10 00:00:38;;;;;;;35.87;26.60;;;;;;;2.43;78.85;94007.41;5041079;28;20233;-65
2021/12/10 00:03:08;;;;;;;33.83;26.50;;;;;;;2.57;79.08;94008.88;5039508;28;20252;-63
2021/12/10 00:05:39;;;;;;;31.57;27.00;;;;;;;2.57;78.87;94024.44;5037977;28;20226;-63
2021/12/10 00:08:06;;;;;;;30.50;26.07;;;;;;;2.69;78.86;94025.19;5037332;28;20234;-63
2021/12/10 00:10:36;;;;;;;31.07;26.50;;;;;;;2.67;78.58;94014.09;5040254;28;20202;-63
2021/12/10 00:13:03;;;;;;;34.93;26.93;;;;;;;2.74;78.39;94002.25;5033323;28;20235;-64
2021/12/10 00:15:31;;;;;;;32.23;26.63;;;;;;;2.59;78.80;94000.03;5037849;28;20230;-63
2021/12/10 00:17:59;;;;;;;36.53;29.10;;;;;;;2.62;78.49;94004.94;5038660;28;20291;-63
2021/12/10 00:20:27;;;;;;;33.73;28.77;;;;;;;2.70;78.32;94009.50;5037244;28;20217;-63
2021/12/10 00:22:58;;;;;;;34.07;27.73;;;;;;;2.65;78.66;94009.88;5036513;28;20253;-63
2021/12/10 00:25:35;;;;;;;35.17;29.37;;;;;;;2.65;78.77;94027.22;5038421;28;20214;-63
2021/12/10 00:28:13;;;;;;;32.30;27.13;;;;;;;2.57;78.93;94006.28;5039086;28;20289;-62
2021/12/10 00:30:54;;;;;;;33.67;27.27;;;;;;;2.54;79.41;93985.75;5035348;28;20255;-61
2021/12/10 00:33:24;;;;;;;33.87;27.33;;;;;;;2.52;79.24;93987.69;5033531;28;20222;-62
2021/12/10 00:35:52;;;;;;;35.37;26.60;;;;;;;2.53;79.26;93987.53;5034900;28;20234;-61
2021/12/10 00:38:18;;;;;;;30.97;25.73;;;;;;;2.58;79.22;93987.97;5037848;28;20226;-62
2021/12/10 00:40:44;;;;;;;31.30;26.73;;;;;;;2.55;79.53;93993.44;5031161;28;20415;-64
2021/12/10 00:43:10;;;;;;;31.73;26.43;;;;;;;2.60;79.53;93982.66;5034743;28;20229;-63
2021/12/10 00:45:36;;;;;;;33.53;26.67;;;;;;;2.69;79.01;93984.47;5037161;28;20245;-64
2021/12/10 00:48:02;;;;;;;32.00;27.27;;;;;;;2.63;79.46;93995.38;5034438;28;20227;-64
2021/12/10 00:50:39;;;;;;;33.00;27.30;;;;;;;2.56;79.86;94005.44;5033370;28;20233;-62
2021/12/10 00:53:05;;;;;;;29.13;25.33;;;;;;;2.62;79.87;93991.97;5030598;28;20229;-62
2021/12/10 00:55:31;;;;;;;30.23;25.67;;;;;;;2.65;79.64;93986.53;5035535;28;20201;-64
2021/12/10 00:57:58;;;;;;;30.70;26.57;;;;;;;2.54;79.98;93983.16;5038335;28;20304;-64
2021/12/10 01:00:28;;;;;;;31.97;26.50;;;;;;;2.55;80.44;93977.84;5037183;28;20221;-62
2021/12/10 01:02:54;;;;;;;31.27;25.73;;;;;;;2.55;80.41;93964.06;5039792;28;20243;-63
2021/12/10 01:05:21;;;;;;;31.70;26.70;;;;;;;2.54;80.62;93962.41;5040903;28;20225;-66
2021/12/10 01:07:47;;;;;;;31.83;25.80;;;;;;;2.59;80.80;93963.69;5041879;28;20269;-64
2021/12/10 01:10:27;;;;;;;32.53;26.03;;;;;;;2.73;80.59;93977.28;5042660;28;20219;-63
2021/12/10 01:12:55;;;;;;;29.90;24.73;;;;;;;2.73;80.06;93969.50;5041942;28;20281;-64
2021/12/10 01:16:08;;;;;;;29.83;25.63;;;;;;;2.78;79.59;93980.28;5042947;28;20225;-65
2021/12/10 01:24:07;;;;;;;46.90;34.90;;;;;;;2.88;78.90;93963.78;5043504;28;20221;-65
2021/12/10 01:29:07;;;;;;;44.33;32.60;;;;;;;2.92;79.19;93961.75;5043918;28;20217;-63
2021/12/10 01:31:33;;;;;;;33.13;25.80;;;;;;;2.95;78.73;93953.72;5041463;28;20243;-62
2021/12/10 01:33:58;;;;;;;27.40;23.17;;;;;;;2.96;79.17;93946.72;5046136;28;20290;-63
2021/12/10 01:36:24;;;;;;;28.00;24.47;;;;;;;3.00;78.94;93951.53;5041369;28;20257;-63
2021/12/10 01:38:52;;;;;;;30.43;25.57;;;;;;;2.93;79.55;93953.00;5040355;28;20301;-63
2021/12/10 01:41:20;;;;;;;32.50;25.73;;;;;;;2.86;80.14;93946.69;5041418;28;20256;-63
2021/12/10 01:43:51;;;;;;;32.63;25.13;;;;;;;2.76;79.96;93930.28;5041278;28;20209;-64
2021/12/10 01:46:25;;;;;;;33.13;27.53;;;;;;;2.76;80.48;93938.06;5042828;28;20288;-64
2021/12/10 01:48:54;;;;;;;35.37;27.77;;;;;;;2.78;80.68;93936.13;5041243;28;20247;-64
2021/12/10 01:51:24;;;;;;;34.20;27.13;;;;;;;2.63;81.15;93946.88;5043603;28;20260;-63
2021/12/10 01:53:53;;;;;;;34.67;26.50;;;;;;;2.83;81.07;93942.59;5037635;28;20221;-63
2021/12/10 01:56:24;;;;;;;33.40;27.10;;;;;;;2.86;80.80;93949.28;5038909;28;20333;-66
2021/12/10 01:58:50;;;;;;;33.90;26.47;;;;;;;2.92;80.77;93946.19;5043548;28;20277;-64
2021/12/10 02:01:23;;;;;;;31.50;25.07;;;;;;;2.86;81.20;93925.91;5035869;28;20210;-64
2021/12/10 02:03:50;;;;;;;31.77;24.73;;;;;;;2.96;81.11;93920.75;5040657;28;20285;-64
2021/12/10 02:06:16;;;;;;;32.57;26.27;;;;;;;3.01;81.15;93919.41;5042950;28;20230;-63
2021/12/10 02:08:42;;;;;;;35.80;28.33;;;;;;;2.99;81.15;93923.91;5042307;28;20228;-63
2021/12/10 02:11:08;;;;;;;35.67;27.87;;;;;;;2.89;81.50;93917.88;5039021;28;20293;-63
2021/12/10 02:13:34;;;;;;;34.40;25.67;;;;;;;2.91;81.33;93912.56;5041819;28;20285;-66
2021/12/10 02:16:00;;;;;;;33.33;27.00;;;;;;;2.86;81.71;93899.97;5036246;28;20197;-64
2021/12/10 02:18:25;;;;;;;30.63;26.20;;;;;;;2.76;82.04;93906.91;5039270;28;20352;-64
2021/12/10 02:21:00;;;;;;;29.97;25.40;;;;;;;2.88;81.96;93904.06;5034715;28;20229;-61
2021/12/10 02:23:27;;;;;;;31.50;25.03;;;;;;;3.02;82.04;93894.25;5039636;28;20229;-64
2021/12/10 02:25:53;;;;;;;31.40;25.00;;;;;;;2.94;81.80;93901.91;5035462;28;20244;-63
2021/12/10 02:28:19;;;;;;;29.83;25.27;;;;;;;2.82;82.08;93899.41;5040671;28;20221;-63
2021/12/10 02:30:46;;;;;;;32.00;26.37;;;;;;;2.84;82.14;93902.69;5037887;28;20307;-63
2021/12/10 02:33:11;;;;;;;28.90;24.73;;;;;;;2.82;81.89;93885.63;5032776;28;20222;-64
2021/12/10 02:35:38;;;;;;;29.80;25.67;;;;;;;2.75;82.23;93887.09;5037066;28;20226;-64
2021/12/10 02:38:05;;;;;;;30.53;25.43;;;;;;;2.77;82.29;93886.00;5036608;28;20241;-64
2021/12/10 02:40:31;;;;;;;31.17;26.10;;;;;;;2.81;82.83;93896.97;5039902;28;20217;-63
2021/12/10 02:43:00;;;;;;;32.67;26.77;;;;;;;2.86;82.51;93894.75;5041607;28;20214;-65
2021/12/10 02:45:28;;;;;;;28.67;24.93;;;;;;;2.84;82.56;93907.06;5029810;28;20213;-63
2021/12/10 02:47:54;;;;;;;30.87;25.37;;;;;;;2.87;82.47;93901.63;5030878;28;20271;-64
2021/12/10 02:50:22;;;;;;;35.53;27.70;;;;;;;2.96;82.50;93911.19;5036888;28;20233;-64
2021/12/10 02:52:48;;;;;;;31.37;27.10;;;;;;;3.04;82.44;93926.94;5036746;28;20208;-64
2021/12/10 02:55:15;;;;;;;34.50;26.10;;;;;;;2.96;82.33;93931.16;5035440;28;20202;-66
2021/12/10 02:57:46;;;;;;;29.03;25.50;;;;;;;2.88;82.58;93934.41;5035683;28;20238;-63
2021/12/10 03:00:16;;;;;;;31.63;26.07;;;;;;;2.90;82.93;93929.91;5053712;28;20222;-65
2021/12/10 03:02:42;;;;;;;29.77;26.07;;;;;;;2.94;82.69;93915.72;5033630;28;20248;-63
2021/12/10 03:05:10;;;;;;;30.90;26.40;;;;;;;3.05;82.55;93907.00;5052505;28;20238;-65
2021/12/10 03:07:38;;;;;;;33.20;26.43;;;;;;;3.00;82.18;93898.78;5037914;28;20213;-67
2021/12/10 03:10:07;;;;;;;30.40;26.47;;;;;;;2.99;82.25;93900.53;5034848;28;20227;-65
2021/12/10 03:12:32;;;;;;;29.47;24.87;;;;;;;2.91;82.06;93912.56;5037473;28;20252;-64
2021/12/10 03:14:58;;;;;;;34.57;27.13;;;;;;;2.93;82.42;93902.84;5034744;28;20225;-66
2021/12/10 03:17:28;;;;;;;31.27;27.40;;;;;;;2.92;82.74;93901.22;5037050;28;20242;-65
2021/12/10 03:19:54;;;;;;;28.63;25.40;;;;;;;3.04;83.02;93906.16;5037991;28;20242;-64
2021/12/10 03:22:21;;;;;;;28.43;25.33;;;;;;;3.09;83.01;93903.97;5037188;28;20209;-67
2021/12/10 03:24:46;;;;;;;30.27;25.97;;;;;;;3.10;82.52;93902.19;5034219;28;20227;-64
2021/12/10 03:27:14;;;;;;;29.87;25.73;;;;;;;3.13;82.76;93914.94;5035867;28;20254;-65
2021/12/10 03:29:42;;;;;;;32.50;26.33;;;;;;;3.13;82.51;93912.34;5040275;28;20289;-65
2021/12/10 03:32:16;;;;;;;33.97;26.63;;;;;;;3.08;82.77;93907.53;5031534;28;20286;-64
2021/12/10 03:34:42;;;;;;;30.27;25.40;;;;;;;3.12;82.61;93915.06;5038011;28;20473;-64
2021/12/10 03:37:08;;;;;;;30.90;25.23;;;;;;;3.03;82.59;93912.31;5037155;28;20233;-65
2021/12/10 03:39:35;;;;;;;30.70;25.83;;;;;;;2.97;83.31;93905.06;5031335;28;20262;-64
2021/12/10 03:42:01;;;;;;;30.13;25.63;;;;;;;3.05;83.75;93905.22;5034766;28;20294;-64
2021/12/10 03:44:28;;;;;;;27.47;24.53;;;;;;;3.06;83.50;93912.03;5034369;28;20242;-64
2021/12/10 03:46:54;;;;;;;29.77;25.30;;;;;;;3.17;83.46;93915.47;5034544;28;20225;-64
2021/12/10 03:49:21;;;;;;;32.33;24.60;;;;;;;3.20;83.02;93923.00;5038112;28;20187;-63
2021/12/10 03:51:47;;;;;;;28.87;24.13;;;;;;;3.20;83.26;93928.19;5037453;28;20277;-65
2021/12/10 03:54:18;;;;;;;30.10;25.53;;;;;;;3.28;83.07;93929.16;5035030;28;20228;-65
2021/12/10 03:56:46;;;;;;;29.10;25.83;;;;;;;3.22;83.06;93926.28;5033796;28;20222;-65
2021/12/10 03:59:14;;;;;;;31.03;25.37;;;;;;;3.18;83.61;93927.50;5034183;28;20233;-65
2021/12/10 04:01:43;;;;;;;24.33;21.03;;;;;;;3.23;83.82;93915.75;5037882;28;20194;-64
2021/12/10 04:04:14;;;;;;;25.83;21.83;;;;;;;3.29;84.21;93917.84;5037019;28;20202;-65
2021/12/10 04:06:40;;;;;;;29.47;24.37;;;;;;;3.40;84.41;93916.06;5037208;28;20214;-68
2021/12/10 04:09:07;;;;;;;26.93;22.80;;;;;;;3.44;84.02;93907.84;5038058;28;20232;-68
2021/12/10 04:11:33;;;;;;;24.20;20.47;;;;;;;3.44;84.15;93907.84;5035054;28;20233;-68
2021/12/10 04:13:59;;;;;;;25.33;22.60;;;;;;;3.34;83.96;93914.81;5040658;28;20233;-65
2021/12/10 04:16:28;;;;;;;33.20;24.77;;;;;;;3.30;83.86;93919.47;5036951;28;20208;-66
2021/12/10 04:18:56;;;;;;;28.97;24.17;;;;;;;3.36;84.16;93930.28;5037151;28;20248;-65
2021/12/10 04:21:22;;;;;;;26.03;22.93;;;;;;;3.25;83.74;93921.66;5036607;28;20222;-66
2021/12/10 04:23:49;;;;;;;24.40;21.80;;;;;;;3.27;84.23;93924.13;5034267;28;20253;-66
2021/12/10 04:26:19;;;;;;;24.73;21.83;;;;;;;3.32;84.31;93929.75;5032777;28;20222;-65
2021/12/10 04:28:44;;;;;;;28.97;24.03;;;;;;;3.35;84.34;93933.84;5038583;28;20198;-64
2021/12/10 04:31:10;;;;;;;24.77;22.07;;;;;;;3.26;84.35;93931.09;5041067;28;20281;-63
2021/12/10 04:33:36;;;;;;;28.10;22.80;;;;;;;3.31;84.16;93930.69;5034097;28;20228;-64
2021/12/10 04:36:03;;;;;;;27.67;22.27;;;;;;;3.25;84.28;93926.03;5035610;28;20230;-64
2021/12/10 04:38:33;;;;;;;27.97;21.70;;;;;;;3.20;84.34;93939.41;5034740;28;20224;-65
2021/12/10 04:41:02;;;;;;;25.17;22.33;;;;;;;3.27;84.55;93939.72;5034890;28;20221;-64
2021/12/10 04:43:29;;;;;;;27.17;22.53;;;;;;;3.30;84.41;93940.25;5039671;28;20202;-67
2021/12/10 04:45:57;;;;;;;26.67;21.70;;;;;;;3.30;84.42;93940.25;5040953;28;20241;-65
2021/12/10 04:48:24;;;;;;;23.17;19.83;;;;;;;3.35;84.63;93926.88;5038595;28;20214;-66
2021/12/10 04:50:51;;;;;;;26.50;21.80;;;;;;;3.48;84.59;93930.03;5034909;28;20230;-64
2021/12/10 04:53:17;;;;;;;26.43;22.63;;;;;;;3.50;84.54;93925.53;5036293;28;20218;-68
2021/12/10 04:55:45;;;;;;;24.90;22.27;;;;;;;3.50;84.28;93943.72;5035267;28;20263;-65
2021/12/10 04:58:11;;;;;;;25.40;22.33;;;;;;;3.36;84.24;93936.28;5036269;28;20221;-64
2021/12/10 05:00:44;;;;;;;26.30;21.70;;;;;;;3.38;84.53;93944.78;5039494;28;20222;-66
2021/12/10 05:03:11;;;;;;;27.23;21.50;;;;;;;3.36;84.34;93938.91;5034214;28;20264;-64
2021/12/10 05:05:38;;;;;;;25.50;22.17;;;;;;;3.32;84.17;93937.53;5035228;28;20233;-66
2021/12/10 05:08:04;;;;;;;24.10;21.67;;;;;;;3.43;84.39;93929.63;5035840;28;20220;-64
2021/12/10 05:10:30;;;;;;;25.63;22.47;;;;;;;3.36;84.13;93931.09;5030571;28;20193;-64
2021/12/10 05:12:56;;;;;;;26.10;22.43;;;;;;;3.28;83.92;93942.16;5036996;28;20305;-63
2021/12/10 05:15:24;;;;;;;25.57;22.87;;;;;;;3.33;83.97;93933.97;5035161;28;20242;-63
2021/12/10 05:17:52;;;;;;;25.03;22.50;;;;;;;3.31;83.93;93943.66;5035276;28;20319;-63
2021/12/10 05:20:39;;;;;;;25.63;22.27;;;;;;;3.28;84.06;93936.97;5032838;28;20254;-64
2021/12/10 05:23:04;;;;;;;28.67;22.60;;;;;;;3.22;84.18;93936.69;5038471;28;20230;-64
2021/12/10 05:25:30;;;;;;;25.80;23.00;;;;;;;3.31;84.69;93943.66;5035825;28;20289;-67
2021/12/10 05:27:57;;;;;;;26.80;22.93;;;;;;;3.37;84.49;93948.34;5039949;28;20237;-64
2021/12/10 05:30:27;;;;;;;28.20;25.17;;;;;;;3.27;84.54;93944.91;5036376;28;20225;-64
2021/12/10 05:32:52;;;;;;;31.27;27.07;;;;;;;3.26;84.48;93953.63;5043114;28;20257;-64
2021/12/10 05:35:18;;;;;;;30.03;25.60;;;;;;;3.33;84.30;93956.53;5030839;28;20234;-64
2021/12/10 05:37:44;;;;;;;32.43;25.50;;;;;;;3.28;84.46;93951.72;5038738;28;20217;-64
2021/12/10 05:40:12;;;;;;;31.50;25.77;;;;;;;3.42;84.55;93940.97;5036610;28;20217;-64
2021/12/10 05:42:40;;;;;;;33.97;25.97;;;;;;;3.46;84.52;93952.72;5031809;28;20237;-65
2021/12/10 05:45:07;;;;;;;33.37;28.03;;;;;;;3.44;84.66;93957.22;5034398;28;20233;-64
2021/12/10 05:47:33;;;;;;;33.13;26.63;;;;;;;3.33;84.46;93948.75;5032165;28;20227;-64
2021/12/10 05:49:59;;;;;;;30.77;25.50;;;;;;;3.30;84.88;93940.25;5036090;28;20228;-65
2021/12/10 05:52:25;;;;;;;27.17;24.07;;;;;;;3.43;84.83;93944.38;5036930;28;20269;-65
2021/12/10 05:54:52;;;;;;;28.00;23.00;;;;;;;3.36;85.03;93936.28;5038315;28;20226;-64
2021/12/10 05:57:18;;;;;;;28.77;24.23;;;;;;;3.54;84.80;93911.28;5036352;28;20238;-63
2021/12/10 05:59:43;;;;;;;30.30;24.77;;;;;;;3.51;84.74;93888.16;5038529;28;20281;-64
2021/12/10 06:02:09;;;;;;;37.20;29.00;;;;;;;3.48;84.57;93927.44;5035637;28;20225;-64
2021/12/10 06:04:35;;;;;;;33.50;25.97;;;;;;;3.54;84.48;93939.06;5017226;28;20210;-65
2021/12/10 06:07:02;;;;;;;36.03;28.60;;;;;;;3.51;84.17;93910.75;5037954;28;20230;-64
2021/12/10 06:09:28;;;;;;;40.73;32.93;;;;;;;3.54;83.62;93913.06;5036121;28;20229;-64
2021/12/10 06:11:53;;;;;;;37.63;32.27;;;;;;;3.46;83.50;93934.53;5041454;28;20253;-64
2021/12/10 06:14:19;;;;;;;42.10;34.40;;;;;;;3.43;83.80;93914.03;5043305;28;20234;-65
2021/12/10 06:16:44;;;;;;;35.97;29.57;;;;;;;3.42;83.43;93927.97;5038144;28;20197;-64
2021/12/10 06:19:10;;;;;;;31.20;26.33;;;;;;;3.56;83.81;93920.75;5037272;28;20293;-62
2021/12/10 06:21:38;;;;;;;32.43;26.83;;;;;;;3.51;83.56;93918.53;5038695;28;20225;-68
2021/12/10 06:24:04;;;;;;;29.87;26.70;;;;;;;3.47;83.92;93938.75;5036691;28;20261;-66
2021/12/10 06:26:30;;;;;;;28.67;25.60;;;;;;;3.53;83.35;93946.03;5036802;28;20234;-67
2021/12/10 06:28:56;;;;;;;34.17;28.80;;;;;;;3.49;83.54;93964.63;5038177;28;20242;-64
2021/12/10 06:31:23;;;;;;;36.47;31.40;;;;;;;3.58;83.05;93944.78;5039549;28;20214;-63
2021/12/10 06:33:50;;;;;;;35.47;30.00;;;;;;;3.50;82.26;93940.28;5034608;28;20218;-63
2021/12/10 06:36:18;;;;;;;34.80;30.10;;;;;;;3.47;82.63;93924.94;5037684;28;20223;-64
2021/12/10 06:38:43;;;;;;;44.53;33.40;;;;;;;3.57;82.67;93938.78;5035908;28;20272;-64
2021/12/10 06:41:09;;;;;;;34.63;29.73;;;;;;;3.58;81.90;93931.81;5035342;28;20226;-64
2021/12/10 06:43:36;;;;;;;35.87;30.67;;;;;;;3.54;82.08;93913.06;5037017;28;20206;-65
2021/12/10 06:46:01;;;;;;;35.10;31.00;;;;;;;3.53;82.67;93896.66;5037068;28;20328;-64
2021/12/10 06:48:28;;;;;;;37.90;31.17;;;;;;;3.59;82.68;93907.47;5035551;28;20226;-64
2021/12/10 06:50:57;;;;;;;36.90;30.97;;;;;;;3.64;82.48;93936.47;5037143;28;20282;-66
2021/12/10 06:53:25;;;;;;;35.97;30.50;;;;;;;3.66;82.18;93911.13;5035240;28;20230;-64
2021/12/10 06:55:51;;;;;;;35.07;30.17;;;;;;;3.75;82.16;93918.13;5029991;28;20227;-64
2021/12/10 06:58:17;;;;;;;34.53;30.43;;;;;;;3.79;82.13;93898.69;5035105;28;20240;-64
2021/12/10 07:00:52;;;;;;;35.83;28.60;;;;;;;3.75;81.94;93915.53;5036363;28;20222;-64
2021/12/10 07:03:21;;;;;;;37.97;31.47;;;;;;;3.79;82.49;93921.28;5033867;28;20237;-65
2021/12/10 07:05:48;;;;;;;31.27;27.97;;;;;;;3.79;82.44;93919.47;5036417;28;20226;-64
2021/12/10 07:08:15;;;;;;;30.43;27.10;;;;;;;3.76;82.28;93923.19;5035581;28;20310;-62
2021/12/10 07:10:41;;;;;;;32.37;27.40;;;;;;;3.72;82.54;93924.44;5033124;28;20234;-61
2021/12/10 07:13:07;;;;;;;31.97;27.87;;;;;;;3.82;82.52;93945.22;5038284;28;20261;-63
2021/12/10 07:15:39;;;;;;;31.10;27.43;;;;;;;3.79;82.56;93949.88;5036360;28;20214;-61
2021/12/10 07:18:05;;;;;;;30.10;26.60;;;;;;;3.89;82.92;93928.09;5034783;28;20229;-62
2021/12/10 07:20:31;;;;;;;30.23;26.90;;;;;;;3.90;82.81;93910.72;5036945;28;20279;-63
2021/12/10 07:22:57;;;;;;;32.00;28.47;;;;;;;3.95;82.81;93942.34;5036839;28;20233;-63
2021/12/10 07:25:23;;;;;;;32.23;28.73;;;;;;;3.92;82.57;93930.44;5034153;28;20211;-63
2021/12/10 07:27:50;;;;;;;32.93;28.47;;;;;;;3.98;82.52;93929.91;5037147;28;20245;-63
2021/12/10 07:30:18;;;;;;;33.20;28.80;;;;;;;4.09;82.58;93944.53;5033643;28;20305;-64
2021/12/10 07:32:43;;;;;;;31.73;27.53;;;;;;;4.16;82.59;93916.16;5035588;28;20244;-63
2021/12/10 07:35:12;;;;;;;33.73;28.03;;;;;;;4.09;82.62;93930.69;5034915;28;20250;-63
2021/12/10 07:37:39;;;;;;;35.77;28.90;;;;;;;4.16;82.90;93939.56;5035864;28;20210;-67
2021/12/10 07:40:08;;;;;;;32.00;26.87;;;;;;;4.29;82.25;93893.25;5036312;28;20257;-63
2021/12/10 07:42:34;;;;;;;33.60;27.93;;;;;;;4.27;82.44;93921.19;5038936;28;20249;-65
2021/12/10 07:45:00;;;;;;;31.53;27.83;;;;;;;4.44;82.63;93935.28;5035230;28;20301;-62
2021/12/10 07:47:33;;;;;;;32.60;28.83;;;;;;;4.48;82.30;93925.41;5034521;28;20234;-62
2021/12/10 07:49:59;;;;;;;29.30;26.20;;;;;;;4.55;82.01;93922.09;5037120;28;20570;-62
2021/12/10 07:52:27;;;;;;;29.73;26.53;;;;;;;4.50;81.82;93913.06;5035290;28;20224;-62
2021/12/10 07:54:54;;;;;;;29.90;25.13;;;;;;;4.55;81.71;93916.88;5030302;28;20230;-62
2021/12/10 07:57:21;;;;;;;32.10;26.83;;;;;;;4.63;81.46;93913.59;5032536;28;20244;-63
2021/12/10 07:59:48;;;;;;;35.03;29.80;;;;;;;4.64;81.35;93907.41;5033430;28;20225;-62
2021/12/10 08:02:15;;;;;;;38.47;31.70;;;;;;;4.56;82.01;93910.72;5033120;28;20225;-63
2021/12/10 08:04:40;;;;;;;34.63;30.63;;;;;;;4.71;82.06;93912.88;5036848;28;20202;-62
2021/12/10 08:07:06;;;;;;;35.03;30.40;;;;;;;4.75;81.59;93927.22;5034110;28;20205;-62
2021/12/10 08:09:32;;;;;;;37.13;30.97;;;;;;;4.80;81.94;93941.47;5048377;28;20221;-62
2021/12/10 08:11:58;;;;;;;37.43;31.03;;;;;;;4.80;81.56;93920.63;5034245;28;20281;-63
2021/12/10 08:14:23;;;;;;;36.27;30.07;;;;;;;4.75;82.16;93901.19;5031211;28;20243;-65
2021/12/10 08:16:49;;;;;;;39.60;32.33;;;;;;;5.02;81.76;93918.59;5033914;28;20273;-62
2021/12/10 08:19:15;;;;;;;36.27;31.07;;;;;;;5.41;81.01;93932.25;5037013;28;20280;-63
2021/12/10 08:21:42;;;;;;;38.00;30.93;;;;;;;5.81;79.15;93920.56;5032533;28;20230;-61
2021/12/10 08:24:07;;;;;;;31.87;28.27;;;;;;;6.03;78.18;93927.13;5034827;28;20229;-65
2021/12/10 08:26:33;;;;;;;33.83;28.37;;;;;;;5.86;78.11;93922.72;5036479;28;20244;-64
2021/12/10 08:28:59;;;;;;;34.97;28.77;;;;;;;5.92;78.60;93933.38;5034076;28;20340;-65
2021/12/10 08:31:25;;;;;;;35.93;30.10;;;;;;;5.97;78.93;93915.50;5034591;28;20269;-64
2021/12/10 08:33:51;;;;;;;36.47;32.23;;;;;;;6.06;78.68;93919.00;5041038;28;20218;-63
2021/12/10 08:36:20;;;;;;;39.03;33.53;;;;;;;6.00;79.24;93897.91;5036577;28;20225;-63
2021/12/10 08:38:46;;;;;;;36.50;29.03;;;;;;;5.89;79.55;93935.47;5035197;28;20285;-63
2021/12/10 08:41:15;;;;;;;33.43;29.87;;;;;;;5.95;79.64;93916.63;5039791;28;20231;-63
2021/12/10 08:43:44;;;;;;;36.43;30.27;;;;;;;6.04;79.39;93920.13;5035219;28;20214;-64
2021/12/10 08:46:11;;;;;;;35.33;30.57;;;;;;;5.87;79.29;93911.31;5034213;28;20220;-65
2021/12/10 08:48:38;;;;;;;36.70;30.27;;;;;;;5.81;79.71;93912.75;5039445;28;20223;-63
2021/12/10 08:51:09;;;;;;;36.10;31.87;;;;;;;5.81;80.23;93914.53;5042773;28;20222;-65
2021/12/10 08:53:35;;;;;;;36.83;31.90;;;;;;;5.82;80.16;93921.38;5035612;28;20226;-65
2021/12/10 08:56:00;;;;;;;35.67;31.80;;;;;;;5.78;80.10;93910.44;5034328;28;20252;-64
2021/12/10 08:58:27;;;;;;;38.13;31.80;;;;;;;5.65;80.42;93921.22;5038555;28;20224;-64
2021/12/10 09:00:57;;;;;;;34.83;31.23;;;;;;;5.61;80.65;93919.88;5031087;28;20222;-65
2021/12/10 09:03:23;;;;;;;34.63;30.83;;;;;;;5.65;80.72;93923.84;5036287;28;20218;-66
2021/12/10 09:05:49;;;;;;;35.23;29.70;;;;;;;5.66;80.69;93911.63;5034247;28;20237;-62
2021/12/10 09:08:15;;;;;;;43.77;33.67;;;;;;;5.91;80.20;93900.44;5034114;28;20226;-61
2021/12/10 09:10:43;;;;;;;40.47;34.43;;;;;;;5.90;79.77;93919.66;5034582;28;20230;-64
2021/12/10 09:13:14;;;;;;;40.13;34.43;;;;;;;5.89;79.71;93904.16;5034603;28;20233;-63
2021/12/10 09:15:52;;;;;;;42.67;34.83;;;;;;;5.92;79.02;93896.03;5032875;28;20226;-67
2021/12/10 09:18:18;;;;;;;42.30;35.90;;;;;;;5.90;79.90;93900.56;5033412;28;20233;-64
2021/12/10 09:20:48;;;;;;;45.17;37.33;;;;;;;5.87;79.45;93878.22;5034611;28;20249;-63
2021/12/10 09:23:19;;;;;;;43.97;36.07;;;;;;;5.97;79.51;93867.72;5037826;28;20233;-63
2021/12/10 09:25:45;;;;;;;45.97;36.77;;;;;;;5.97;79.29;93897.25;5038875;28;20202;-64
2021/12/10 09:28:11;;;;;;;52.90;39.57;;;;;;;5.95;78.77;93907.00;5039452;28;20202;-64
2021/12/10 09:30:39;;;;;;;49.87;41.10;;;;;;;5.89;79.06;93912.00;5036904;28;20294;-63
2021/12/10 09:33:05;;;;;;;53.90;43.63;;;;;;;5.84;79.15;93901.19;5047042;28;20239;-62
2021/12/10 09:35:34;;;;;;;57.27;42.57;;;;;;;5.88;78.98;93897.28;5039370;28;20259;-65
2021/12/10 09:37:59;;;;;;;49.70;42.63;;;;;;;5.70;79.40;93877.28;5033205;28;20230;-65
2021/12/10 09:40:33;;;;;;;49.13;42.83;;;;;;;5.96;79.12;93856.47;5038885;28;20290;-63
2021/12/10 09:42:59;;;;;;;51.87;44.23;;;;;;;6.26;78.72;93853.56;5041076;28;20213;-63
2021/12/10 09:45:28;;;;;;;51.33;45.00;;;;;;;6.75;77.27;93872.09;5036830;28;20245;-63
2021/12/10 09:47:53;;;;;;;52.40;43.63;;;;;;;7.13;75.33;93857.69;5034765;28;20230;-63
2021/12/10 09:50:23;;;;;;;48.47;42.93;;;;;;;7.66;74.14;93874.00;5034946;28;20312;-63
2021/12/10 09:52:49;;;;;;;46.70;41.70;;;;;;;7.84;72.66;93864.19;5034265;28;20317;-63
2021/12/10 09:55:16;;;;;;;48.37;41.40;;;;;;;8.16;71.74;93862.56;5029950;28;20286;-63
2021/12/10 09:57:45;;;;;;;45.23;40.23;;;;;;;8.23;72.40;93863.50;5029475;28;20230;-62
2021/12/10 10:00:21;;;;;;;54.30;47.63;;;;;;;8.17;71.12;93867.59;5030728;28;20241;-64
2021/12/10 10:02:47;;;;;;;62.20;50.83;;;;;;;7.84;71.28;93853.72;5035268;28;20260;-62
2021/12/10 10:05:13;;;;;;;62.00;51.70;;;;;;;7.88;72.65;93849.78;5035555;28;20234;-63
2021/12/10 10:07:39;;;;;;;60.47;49.93;;;;;;;8.01;72.66;93848.47;5030317;28;20241;-63
2021/12/10 10:10:10;;;;;;;53.87;47.93;;;;;;;8.38;70.67;93830.41;5035158;28;20202;-63
2021/12/10 10:12:39;;;;;;;63.37;54.30;;;;;;;8.09;71.77;93822.28;5032756;28;20222;-62
2021/12/10 10:15:11;;;;;;;56.83;49.40;;;;;;;8.09;72.66;93836.19;5032486;28;20230;-63
2021/12/10 10:17:37;;;;;;;58.83;49.27;;;;;;;7.79;73.44;93839.50;5030275;28;20238;-63
2021/12/10 10:20:05;;;;;;;55.83;48.73;;;;;;;7.62;73.42;93843.91;5039389;28;20304;-62
2021/12/10 10:22:30;;;;;;;73.77;62.00;;;;;;;7.42;74.05;93838.97;5034629;28;20225;-63
2021/12/10 10:24:57;;;;;;;73.37;61.43;;;;;;;7.30;74.24;93827.19;5031127;28;20217;-64
2021/12/10 10:27:28;;;;;;;75.60;59.90;;;;;;;7.49;73.86;93824.28;5032383;28;20250;-63
2021/12/10 10:30:22;;;;;;;76.47;62.33;;;;;;;7.47;74.29;93817.56;5034732;28;20255;-63
2021/12/10 10:32:49;;;;;;;77.17;60.80;;;;;;;7.40;74.89;93812.16;5029418;28;20271;-61
2021/12/10 10:35:26;;;;;;;72.20;58.57;;;;;;;7.61;74.33;93806.44;5034887;28;20218;-62
2021/12/10 10:37:53;;;;;;;71.80;59.30;;;;;;;7.45;74.39;93801.22;5034846;28;20214;-61
2021/12/10 10:40:24;;;;;;;65.37;56.00;;;;;;;7.39;74.84;93800.06;5032011;28;20241;-62
2021/12/10 10:42:51;;;;;;;71.10;56.33;;;;;;;7.85;73.48;93797.78;5035090;28;20253;-62
2021/12/10 10:45:23;;;;;;;58.93;50.80;;;;;;;8.21;72.31;93797.41;5030629;28;20230;-64
2021/12/10 10:47:49;;;;;;;64.23;54.23;;;;;;;8.25;72.69;93808.34;5031253;28;20228;-63
2021/12/10 10:50:21;;;;;;;57.87;49.53;;;;;;;8.26;72.96;93809.97;5001704;28;20230;-62
2021/12/10 10:52:55;;;;;;;58.23;48.10;;;;;;;8.07;73.06;93805.94;5036063;28;20271;-65
2021/12/10 10:55:24;;;;;;;56.43;48.70;;;;;;;7.89;74.02;93808.75;5038352;28;20214;-63
2021/12/10 10:57:54;;;;;;;58.23;50.70;;;;;;;7.95;73.46;93797.63;5036528;28;20241;-64
2021/12/10 11:00:47;;;;;;;52.17;45.57;;;;;;;7.77;72.44;93794.34;5041640;28;20229;-65
2021/12/10 11:03:23;;;;;;;53.27;46.77;;;;;;;7.54;73.95;93788.94;5038852;28;20272;-63
2021/12/10 11:05:57;;;;;;;53.00;45.03;;;;;;;7.42;74.67;93788.47;5031479;28;20236;-65
2021/12/10 11:08:30;;;;;;;44.97;40.03;;;;;;;7.14;75.51;93787.97;5041509;28;20251;-65
2021/12/10 11:11:06;;;;;;;46.03;40.60;;;;;;;7.17;76.45;93814.59;5037322;28;20336;-65
2021/12/10 11:13:32;;;;;;;44.53;37.20;;;;;;;7.12;76.81;93814.25;5034065;28;20210;-65
2021/12/10 11:16:05;;;;;;;44.63;37.00;;;;;;;7.13;76.35;93807.22;5035034;28;20222;-65
2021/12/10 11:18:49;;;;;;;37.73;33.70;;;;;;;7.09;76.28;93805.91;5038289;28;20217;-66
2021/12/10 11:21:17;;;;;;;37.07;33.03;;;;;;;7.04;76.53;93801.97;5036922;28;20229;-65
2021/12/10 11:23:44;;;;;;;35.90;30.53;;;;;;;7.09;75.87;93803.31;5038800;28;20225;-65
2021/12/10 11:26:10;;;;;;;34.17;30.47;;;;;;;7.02;76.17;93806.53;5038129;28;20252;-65
2021/12/10 11:28:41;;;;;;;34.23;30.60;;;;;;;7.08;76.56;93805.06;5036451;28;20229;-67
2021/12/10 11:31:16;;;;;;;34.67;30.43;;;;;;;7.03;75.93;93781.22;5035869;28;20266;-67
2021/12/10 11:33:51;;;;;;;28.83;25.73;;;;;;;7.12;75.36;93776.84;5033596;28;20229;-65
2021/12/10 11:36:24;;;;;;;29.50;26.17;;;;;;;7.22;74.94;93774.91;5036541;28;20231;-62